Time;durP1;ratioP1;P1;durP2;ratioP2;P2;SDS_P1;SDS_P2;PMS_P1;PMS_P2;Temp;Humidity;BMP_temperature;BMP_pressure;BME280_temperature;BME280_humidity;BME280_pressure;Samples;Min_cycle;Max_cycle;Signal;HPM_P1;HPM_P2
2023/02/14 00:01:53;;;;;;;34.23;15.20;;;;;;;;;;5074996;28;20481;-86
2023/02/14 00:04:19;;;;;;;30.17;14.80;;;;;;;;;;5075057;28;20556;-86
2023/02/14 00:06:45;;;;;;;33.50;14.97;;;;;;;;;;5075137;28;20422;-86
2023/02/14 00:09:13;;;;;;;34.00;16.87;;;;;;;;;;5074910;28;20467;-87
2023/02/14 00:11:42;;;;;;;30.93;13.47;;;;;;;;;;5058133;28;20504;-87
2023/02/14 00:16:53;;;;;;;34.57;14.20;;;;;;;;;;5076555;28;20398;-87
2023/02/14 00:19:21;;;;;;;29.77;15.17;;;;;;;;;;5075984;28;20777;-87
2023/02/14 00:21:48;;;;;;;27.60;14.93;;;;;;;;;;5073955;28;20563;-86
2023/02/14 00:24:14;;;;;;;35.37;15.73;;;;;;;;;;5075148;28;20951;-86
2023/02/14 00:26:40;;;;;;;26.07;14.07;;;;;;;;;;5069435;28;20426;-86
2023/02/14 00:29:07;;;;;;;31.10;14.80;;;;;;;;;;5087875;28;20430;-86
2023/02/14 00:31:34;;;;;;;35.13;15.30;;;;;;;;;;5058141;28;20482;-86
2023/02/14 00:34:00;;;;;;;36.17;16.27;;;;;;;;;;5074478;28;20426;-85
2023/02/14 00:36:26;;;;;;;29.43;13.67;;;;;;;;;;5074293;28;20432;-86
2023/02/14 00:38:52;;;;;;;24.77;12.77;;;;;;;;;;5074091;28;20418;-86
2023/02/14 00:41:18;;;;;;;25.80;15.47;;;;;;;;;;5074241;28;20423;-86
2023/02/14 00:44:08;;;;;;;25.53;13.43;;;;;;;;;;5074505;28;20449;-87
2023/02/14 00:46:54;;;;;;;29.50;15.80;;;;;;;;;;5075650;28;20410;-87
2023/02/14 00:49:20;;;;;;;25.80;12.97;;;;;;;;;;5074118;28;20518;-86
2023/02/14 00:51:46;;;;;;;29.07;15.30;;;;;;;;;;5057629;28;20946;-85
2023/02/14 00:54:12;;;;;;;24.27;13.10;;;;;;;;;;5073737;28;20416;-86
2023/02/14 00:56:38;;;;;;;26.93;14.63;;;;;;;;;;5073635;28;20426;-86
2023/02/14 00:59:04;;;;;;;24.53;12.07;;;;;;;;;;5073805;28;20821;-85
2023/02/14 01:01:30;;;;;;;33.80;17.37;;;;;;;;;;5073249;28;20469;-85
2023/02/14 01:03:57;;;;;;;27.77;15.87;;;;;;;;;;5068377;28;20480;-85
2023/02/14 01:06:23;;;;;;;38.13;14.50;;;;;;;;;;5075061;28;20550;-85
2023/02/14 01:08:50;;;;;;;27.90;13.20;;;;;;;;;;5073763;28;20437;-86
2023/02/14 01:11:19;;;;;;;27.47;13.10;;;;;;;;;;5073951;28;20413;-86
2023/02/14 01:13:47;;;;;;;29.70;14.57;;;;;;;;;;5055887;28;20516;-85
2023/02/14 01:16:14;;;;;;;29.63;15.10;;;;;;;;;;5054839;28;20410;-85
2023/02/14 01:18:41;;;;;;;24.20;11.40;;;;;;;;;;5073646;28;20428;-86
2023/02/14 01:21:20;;;;;;;28.73;13.10;;;;;;;;;;5073685;28;20458;-86
2023/02/14 01:23:47;;;;;;;28.10;14.83;;;;;;;;;;5074563;28;20422;-86
2023/02/14 01:26:14;;;;;;;27.00;13.93;;;;;;;;;;5070968;28;20781;-85
2023/02/14 01:28:40;;;;;;;36.37;16.20;;;;;;;;;;5060905;28;20464;-85
2023/02/14 01:31:11;;;;;;;29.17;15.33;;;;;;;;;;5053567;28;20419;-85
2023/02/14 01:33:37;;;;;;;33.73;15.40;;;;;;;;;;5053584;28;20787;-87
2023/02/14 01:36:03;;;;;;;28.67;14.03;;;;;;;;;;5053576;28;20419;-86
2023/02/14 01:38:29;;;;;;;26.60;15.17;;;;;;;;;;5066231;28;20412;-85
2023/02/14 01:40:56;;;;;;;31.80;16.30;;;;;;;;;;5063980;28;20805;-89
2023/02/14 01:43:24;;;;;;;27.97;15.47;;;;;;;;;;5056305;28;20478;-89
2023/02/14 01:45:50;;;;;;;24.90;14.07;;;;;;;;;;5071590;28;20417;-91
2023/02/14 01:48:19;;;;;;;26.07;14.13;;;;;;;;;;5073232;28;20921;-93
2023/02/14 01:50:45;;;;;;;30.17;14.30;;;;;;;;;;5071206;28;20517;-91
2023/02/14 01:53:13;;;;;;;29.37;15.50;;;;;;;;;;5073353;28;20460;-91
2023/02/14 01:55:42;;;;;;;27.50;14.67;;;;;;;;;;5057675;28;20417;-92
2023/02/14 01:58:28;;;;;;;27.43;14.70;;;;;;;;;;5071251;28;20414;-94
2023/02/14 02:00:57;;;;;;;32.50;15.60;;;;;;;;;;5055414;28;20502;-94
2023/02/14 02:03:26;;;;;;;31.00;16.03;;;;;;;;;;5054804;28;21042;-83
2023/02/14 02:05:53;;;;;;;28.27;14.50;;;;;;;;;;5054787;28;20766;-93
2023/02/14 02:08:19;;;;;;;32.40;15.30;;;;;;;;;;5054386;28;20411;-92
2023/02/14 02:10:45;;;;;;;33.60;16.23;;;;;;;;;;5056181;28;20431;-82
2023/02/14 02:13:17;;;;;;;31.10;13.83;;;;;;;;;;5070999;28;20411;-89
2023/02/14 02:15:54;;;;;;;28.47;14.87;;;;;;;;;;5055441;28;20449;-91
2023/02/14 02:18:31;;;;;;;25.93;12.67;;;;;;;;;;5071757;28;20398;-94
2023/02/14 02:21:19;;;;;;;25.40;14.67;;;;;;;;;;5065028;28;20934;-90
2023/02/14 02:23:56;;;;;;;30.67;14.20;;;;;;;;;;5074918;28;20443;-92
2023/02/14 02:26:41;;;;;;;24.40;13.93;;;;;;;;;;5079775;28;20415;-86
2023/02/14 02:29:26;;;;;;;38.13;17.17;;;;;;;;;;5085072;28;20408;-83
2023/02/14 02:32:24;;;;;;;33.43;13.57;;;;;;;;;;5091390;28;20513;-84
2023/02/14 02:35:12;;;;;;;38.10;16.80;;;;;;;;;;5067236;28;21010;-84
2023/02/14 02:37:56;;;;;;;28.80;13.10;;;;;;;;;;5075202;28;20437;-94
2023/02/14 02:40:36;;;;;;;25.47;14.60;;;;;;;;;;5075173;28;20422;-84
2023/02/14 02:43:11;;;;;;;32.63;15.40;;;;;;;;;;5074765;28;20465;-94
2023/02/14 02:48:50;;;;;;;24.23;12.77;;;;;;;;;;5069158;28;20834;-88
2023/02/14 02:54:13;;;;;;;29.23;15.03;;;;;;;;;;5056304;28;20499;-95
2023/02/14 02:56:46;;;;;;;29.33;15.30;;;;;;;;;;5073735;28;20445;-91
2023/02/14 02:59:19;;;;;;;23.30;12.77;;;;;;;;;;5065786;28;20460;-83
2023/02/14 03:02:03;;;;;;;30.70;13.83;;;;;;;;;;5060484;28;20595;-90
2023/02/14 03:10:00;;;;;;;27.93;14.47;;;;;;;;;;5054621;28;20393;-89
2023/02/14 03:12:39;;;;;;;34.80;14.77;;;;;;;;;;5053419;28;20420;-94
2023/02/14 03:15:24;;;;;;;35.63;16.23;;;;;;;;;;5053357;28;20785;-87
2023/02/14 03:20:49;;;;;;;29.50;14.80;;;;;;;;;;5054007;28;20436;-92
2023/02/14 03:23:15;;;;;;;26.03;13.97;;;;;;;;;;5052866;28;20820;-89
2023/02/14 03:25:40;;;;;;;27.27;14.67;;;;;;;;;;5053458;28;20404;-86
2023/02/14 03:28:13;;;;;;;35.17;17.10;;;;;;;;;;5052684;28;20929;-89
2023/02/14 03:30:57;;;;;;;31.67;16.03;;;;;;;;;;5052304;28;20413;-83
2023/02/14 03:33:44;;;;;;;32.60;16.30;;;;;;;;;;5052486;28;20452;-84
2023/02/14 03:36:12;;;;;;;33.07;15.97;;;;;;;;;;5032234;28;20425;-88
2023/02/14 03:38:55;;;;;;;34.50;15.83;;;;;;;;;;5052170;28;20555;-90
2023/02/14 03:41:24;;;;;;;30.90;14.97;;;;;;;;;;5052144;28;20425;-89
2023/02/14 03:43:58;;;;;;;29.37;13.43;;;;;;;;;;5052472;28;20514;-84
2023/02/14 03:46:29;;;;;;;23.70;12.33;;;;;;;;;;5052045;28;20468;-83
2023/02/14 03:49:00;;;;;;;33.90;17.47;;;;;;;;;;5052062;28;20433;-88
2023/02/14 03:51:27;;;;;;;32.13;15.20;;;;;;;;;;5053487;28;20839;-89
2023/02/14 03:53:56;;;;;;;33.43;15.37;;;;;;;;;;5053350;28;20421;-83
2023/02/14 03:56:25;;;;;;;32.30;15.10;;;;;;;;;;5052453;28;20416;-88
2023/02/14 03:59:01;;;;;;;32.87;16.80;;;;;;;;;;5053042;28;20800;-90
2023/02/14 04:01:32;;;;;;;30.43;14.00;;;;;;;;;;5051827;28;20976;-89
2023/02/14 04:03:59;;;;;;;25.37;14.87;;;;;;;;;;5052195;28;20420;-87
2023/02/14 04:06:24;;;;;;;27.17;14.63;;;;;;;;;;5053395;28;20411;-91
2023/02/14 04:08:50;;;;;;;31.43;13.87;;;;;;;;;;5051817;28;20494;-91
2023/02/14 04:11:16;;;;;;;28.70;13.97;;;;;;;;;;5052274;28;20420;-88
2023/02/14 04:13:56;;;;;;;30.20;15.43;;;;;;;;;;5052462;28;20424;-90
2023/02/14 04:16:22;;;;;;;34.63;16.40;;;;;;;;;;5052225;28;20428;-83
2023/02/14 04:21:33;;;;;;;32.43;15.23;;;;;;;;;;5066689;28;20468;-86
2023/02/14 04:23:59;;;;;;;32.17;15.50;;;;;;;;;;5053306;28;20415;-86
2023/02/14 04:26:25;;;;;;;30.00;14.80;;;;;;;;;;5052026;28;20900;-91
2023/02/14 04:28:51;;;;;;;29.80;16.67;;;;;;;;;;5068867;28;20437;-91
2023/02/14 04:31:19;;;;;;;33.07;15.67;;;;;;;;;;5016713;28;20953;-89
2023/02/14 04:33:46;;;;;;;30.33;15.80;;;;;;;;;;5039293;28;20421;-87
2023/02/14 04:36:13;;;;;;;29.87;15.77;;;;;;;;;;5055750;28;20961;-84
2023/02/14 04:38:39;;;;;;;30.90;15.33;;;;;;;;;;5055119;28;20979;-86
2023/02/14 04:41:05;;;;;;;29.07;12.83;;;;;;;;;;5055619;28;20426;-88
2023/02/14 04:43:31;;;;;;;28.07;14.50;;;;;;;;;;5055373;28;20477;-89
2023/02/14 04:45:57;;;;;;;29.47;13.60;;;;;;;;;;5056289;28;20449;-89
2023/02/14 04:48:23;;;;;;;30.30;14.20;;;;;;;;;;5055354;28;20433;-86
2023/02/14 04:50:52;;;;;;;33.07;15.57;;;;;;;;;;5057142;28;20436;-88
2023/02/14 04:53:18;;;;;;;26.40;13.87;;;;;;;;;;5056280;28;20404;-91
2023/02/14 04:55:45;;;;;;;31.37;12.87;;;;;;;;;;5055519;28;20414;-91
2023/02/14 04:58:11;;;;;;;35.73;17.77;;;;;;;;;;5056516;28;20476;-90
2023/02/14 05:00:36;;;;;;;27.10;12.10;;;;;;;;;;5055282;28;20418;-89
2023/02/14 05:03:02;;;;;;;31.43;14.50;;;;;;;;;;5055584;28;20562;-91
2023/02/14 05:05:28;;;;;;;33.13;13.97;;;;;;;;;;5055601;28;20453;-91
2023/02/14 05:07:54;;;;;;;37.20;15.83;;;;;;;;;;5055086;28;20428;-91
2023/02/14 05:10:20;;;;;;;23.53;12.90;;;;;;;;;;5055364;28;20417;-90
2023/02/14 05:12:46;;;;;;;25.50;14.97;;;;;;;;;;5055069;28;20416;-91
2023/02/14 05:15:12;;;;;;;35.63;17.80;;;;;;;;;;5055409;28;20413;-92
2023/02/14 05:17:41;;;;;;;32.07;14.63;;;;;;;;;;5055075;28;20424;-87
2023/02/14 05:20:46;;;;;;;25.83;13.30;;;;;;;;;;5056380;28;20540;-90
2023/02/14 05:23:36;;;;;;;29.00;15.33;;;;;;;;;;5057534;28;21332;-86
2023/02/14 05:26:24;;;;;;;38.00;18.40;;;;;;;;;;5055948;28;20424;-88
2023/02/14 05:28:50;;;;;;;30.27;16.43;;;;;;;;;;5054934;28;20933;-87
2023/02/14 05:31:16;;;;;;;30.77;15.33;;;;;;;;;;5054895;28;20409;-86
2023/02/14 05:33:42;;;;;;;27.33;13.03;;;;;;;;;;5054845;28;20416;-85
2023/02/14 05:36:14;;;;;;;33.50;14.33;;;;;;;;;;5054693;28;20415;-87
2023/02/14 05:38:40;;;;;;;30.47;13.47;;;;;;;;;;5054023;28;20427;-89
2023/02/14 05:41:06;;;;;;;34.20;14.87;;;;;;;;;;5054403;28;20419;-88
2023/02/14 05:43:32;;;;;;;29.80;14.20;;;;;;;;;;5055766;28;20472;-90
2023/02/14 05:45:58;;;;;;;27.23;14.60;;;;;;;;;;5054204;28;20825;-85
2023/02/14 05:48:24;;;;;;;36.10;15.60;;;;;;;;;;5055477;28;20490;-87
2023/02/14 05:50:51;;;;;;;31.77;16.20;;;;;;;;;;5013597;28;20429;-90
2023/02/14 05:53:17;;;;;;;25.87;14.80;;;;;;;;;;5054002;28;20422;-88
2023/02/14 05:55:43;;;;;;;28.10;15.20;;;;;;;;;;5054011;28;20436;-87
2023/02/14 05:58:09;;;;;;;32.60;15.77;;;;;;;;;;5054065;28;20413;-88
2023/02/14 06:00:36;;;;;;;34.10;16.73;;;;;;;;;;5054044;28;20428;-89
2023/02/14 06:03:02;;;;;;;34.47;16.17;;;;;;;;;;5042953;28;20486;-89
2023/02/14 06:05:28;;;;;;;34.20;16.93;;;;;;;;;;5040056;28;20414;-90
2023/02/14 06:07:54;;;;;;;32.33;14.50;;;;;;;;;;5053731;28;20475;-87
2023/02/14 06:10:21;;;;;;;37.10;17.10;;;;;;;;;;5051850;28;20418;-88
2023/02/14 06:12:52;;;;;;;29.40;16.10;;;;;;;;;;5067210;28;20424;-89
2023/02/14 06:15:19;;;;;;;28.97;14.83;;;;;;;;;;5051651;28;20420;-90
2023/02/14 06:17:46;;;;;;;30.40;14.80;;;;;;;;;;5066758;28;20431;-87
2023/02/14 06:20:12;;;;;;;29.40;14.90;;;;;;;;;;5053722;28;20422;-88
2023/02/14 06:22:44;;;;;;;29.23;14.63;;;;;;;;;;5053258;28;20465;-89
2023/02/14 06:25:10;;;;;;;27.43;15.00;;;;;;;;;;5055705;28;20446;-87
2023/02/14 06:27:36;;;;;;;28.20;14.53;;;;;;;;;;5054856;28;20468;-92
2023/02/14 06:30:02;;;;;;;29.80;15.20;;;;;;;;;;5054527;28;20407;-88
2023/02/14 06:32:48;;;;;;;27.13;13.70;;;;;;;;;;5054166;28;20426;-92
2023/02/14 06:35:59;;;;;;;30.63;15.40;;;;;;;;;;5055208;28;20432;-86
2023/02/14 06:38:31;;;;;;;28.60;14.27;;;;;;;;;;5054939;28;20414;-93
2023/02/14 06:41:02;;;;;;;33.40;16.03;;;;;;;;;;5053816;28;20422;-93
2023/02/14 06:43:28;;;;;;;22.73;11.53;;;;;;;;;;5054777;28;20475;-89
2023/02/14 06:45:54;;;;;;;32.17;16.70;;;;;;;;;;5053317;28;20470;-93
2023/02/14 06:48:20;;;;;;;26.37;13.77;;;;;;;;;;5053497;28;20547;-90
2023/02/14 06:50:46;;;;;;;32.83;15.43;;;;;;;;;;5057367;28;20417;-92
2023/02/14 06:53:12;;;;;;;25.27;16.50;;;;;;;;;;5018430;28;21043;-93
2023/02/14 06:55:38;;;;;;;29.30;14.80;;;;;;;;;;5055015;28;20494;-89
2023/02/14 06:58:07;;;;;;;30.20;14.23;;;;;;;;;;5053288;28;20425;-86
2023/02/14 07:00:33;;;;;;;28.60;16.30;;;;;;;;;;5053884;28;20425;-92
2023/02/14 07:02:59;;;;;;;25.80;14.47;;;;;;;;;;5054272;28;20471;-85
2023/02/14 07:05:25;;;;;;;26.13;16.10;;;;;;;;;;5053178;28;20413;-92
2023/02/14 07:07:52;;;;;;;28.47;14.50;;;;;;;;;;5054238;28;20414;-87
2023/02/14 07:10:18;;;;;;;26.07;14.10;;;;;;;;;;5052720;28;20410;-93
2023/02/14 07:12:44;;;;;;;28.93;14.80;;;;;;;;;;5054057;28;20808;-90
2023/02/14 07:15:11;;;;;;;26.50;12.37;;;;;;;;;;5048262;28;20427;-87
2023/02/14 07:17:37;;;;;;;35.03;14.23;;;;;;;;;;5048885;28;20441;-87
2023/02/14 07:20:04;;;;;;;31.87;14.83;;;;;;;;;;5046198;28;20730;-86
2023/02/14 07:22:30;;;;;;;25.30;13.67;;;;;;;;;;5052179;28;20563;-88
2023/02/14 07:24:56;;;;;;;25.17;13.60;;;;;;;;;;5053903;28;20480;-90
2023/02/14 07:27:22;;;;;;;25.60;13.30;;;;;;;;;;5052784;28;20414;-85
2023/02/14 07:29:48;;;;;;;26.43;14.50;;;;;;;;;;5055265;28;20506;-92
2023/02/14 07:32:14;;;;;;;28.27;13.83;;;;;;;;;;5056766;28;20403;-94
2023/02/14 07:34:40;;;;;;;24.97;12.77;;;;;;;;;;5058399;28;20503;-94
2023/02/14 07:37:06;;;;;;;24.87;13.43;;;;;;;;;;5057713;28;20425;-95
2023/02/14 07:39:32;;;;;;;29.30;15.03;;;;;;;;;;5056589;28;20406;-92
2023/02/14 07:41:58;;;;;;;33.73;15.37;;;;;;;;;;5053906;28;20555;-92
2023/02/14 07:44:24;;;;;;;27.70;13.60;;;;;;;;;;5051789;28;20423;-89
2023/02/14 07:46:50;;;;;;;25.73;14.40;;;;;;;;;;5052677;28;20454;-90
2023/02/14 07:49:15;;;;;;;24.57;12.13;;;;;;;;;;5053035;28;20427;-87
2023/02/14 07:51:41;;;;;;;24.83;12.40;;;;;;;;;;5050796;28;20429;-88
2023/02/14 07:54:07;;;;;;;27.80;13.50;;;;;;;;;;5053081;28;20895;-87
2023/02/14 07:56:33;;;;;;;29.07;13.30;;;;;;;;;;5053613;28;20418;-88
2023/02/14 07:58:59;;;;;;;24.90;12.30;;;;;;;;;;5053005;28;20428;-87
2023/02/14 08:01:25;;;;;;;29.10;14.57;;;;;;;;;;5052249;28;20451;-87
2023/02/14 08:03:51;;;;;;;26.47;13.47;;;;;;;;;;5052535;28;20451;-88
2023/02/14 08:06:18;;;;;;;28.13;14.47;;;;;;;;;;5052289;28;20414;-84
2023/02/14 08:08:44;;;;;;;24.63;11.80;;;;;;;;;;5013445;28;20493;-81
2023/02/14 08:11:11;;;;;;;29.63;13.77;;;;;;;;;;5056409;28;20444;-88
2023/02/14 08:13:37;;;;;;;24.60;13.23;;;;;;;;;;5055163;28;20430;-91
2023/02/14 08:16:03;;;;;;;24.77;11.73;;;;;;;;;;5055470;28;20459;-87
2023/02/14 08:18:29;;;;;;;23.23;12.93;;;;;;;;;;5055129;28;20439;-87
2023/02/14 08:20:55;;;;;;;22.30;12.67;;;;;;;;;;5070279;28;20419;-87
2023/02/14 08:23:22;;;;;;;19.90;12.37;;;;;;;;;;5054800;28;20473;-87
2023/02/14 08:25:49;;;;;;;18.70;12.50;;;;;;;;;;5045643;28;20418;-87
2023/02/14 08:28:15;;;;;;;17.90;10.00;;;;;;;;;;5043899;28;20431;-86
2023/02/14 08:30:41;;;;;;;16.43;11.83;;;;;;;;;;5057111;28;20414;-85
2023/02/14 08:33:07;;;;;;;17.13;10.40;;;;;;;;;;5067700;28;20423;-85
2023/02/14 08:35:34;;;;;;;17.57;11.33;;;;;;;;;;5043725;28;20428;-87
2023/02/14 08:37:59;;;;;;;18.93;11.07;;;;;;;;;;5041534;28;20925;-86
2023/02/14 08:40:25;;;;;;;18.93;12.27;;;;;;;;;;5059547;28;20480;-86
2023/02/14 08:42:52;;;;;;;18.50;12.20;;;;;;;;;;5057317;28;20474;-86
2023/02/14 08:45:18;;;;;;;19.53;12.30;;;;;;;;;;5045782;28;20472;-83
2023/02/14 08:47:44;;;;;;;17.07;10.80;;;;;;;;;;5044702;28;20451;-87
2023/02/14 08:50:15;;;;;;;15.83;11.00;;;;;;;;;;5040764;28;20957;-86
2023/02/14 08:52:42;;;;;;;18.00;10.70;;;;;;;;;;5044735;28;20532;-87
2023/02/14 08:55:12;;;;;;;21.37;10.03;;;;;;;;;;5047659;28;20510;-85
2023/02/14 08:57:39;;;;;;;16.23;10.20;;;;;;;;;;5044516;28;20409;-90
2023/02/14 09:00:06;;;;;;;14.17;10.87;;;;;;;;;;5045912;28;20424;-89
2023/02/14 09:02:31;;;;;;;15.07;9.83;;;;;;;;;;5048776;28;20546;-90
2023/02/14 09:04:57;;;;;;;16.90;10.20;;;;;;;;;;5043995;28;20519;-85
2023/02/14 09:07:23;;;;;;;19.17;11.93;;;;;;;;;;5060488;28;20768;-89
2023/02/14 09:09:49;;;;;;;15.80;11.50;;;;;;;;;;5026668;28;20471;-88
2023/02/14 09:12:15;;;;;;;18.80;11.40;;;;;;;;;;5044936;28;20180;-86
2023/02/14 09:14:42;;;;;;;14.63;10.57;;;;;;;;;;5042552;28;20422;-88
2023/02/14 09:17:36;;;;;;;15.30;12.27;;;;;;;;;;5045187;28;20472;-88
2023/02/14 09:20:25;;;;;;;11.93;9.20;;;;;;;;;;5045353;28;20952;-87
2023/02/14 09:23:11;;;;;;;13.87;10.07;;;;;;;;;;5045990;28;20915;-90
2023/02/14 09:25:37;;;;;;;12.43;10.53;;;;;;;;;;5063597;28;20419;-88
2023/02/14 09:28:03;;;;;;;13.40;10.40;;;;;;;;;;5039629;28;20272;-86
2023/02/14 09:30:29;;;;;;;13.83;10.40;;;;;;;;;;5057889;28;20419;-90
2023/02/14 09:32:55;;;;;;;14.57;9.70;;;;;;;;;;5048362;28;21070;-89
2023/02/14 09:38:05;;;;;;;14.53;11.53;;;;;;;;;;5045023;28;20538;-86
2023/02/14 09:40:32;;;;;;;17.43;11.97;;;;;;;;;;5044289;28;20988;-83
2023/02/14 09:43:13;;;;;;;14.93;12.33;;;;;;;;;;5042963;28;20496;-84
2023/02/14 09:45:39;;;;;;;15.00;11.27;;;;;;;;;;5044066;28;20547;-85
2023/02/14 09:48:07;;;;;;;17.70;11.20;;;;;;;;;;5044010;28;20414;-84
2023/02/14 09:50:33;;;;;;;16.77;12.60;;;;;;;;;;5057833;28;20429;-84
2023/02/14 09:53:07;;;;;;;17.67;13.03;;;;;;;;;;5041139;28;20524;-83
2023/02/14 09:55:43;;;;;;;12.70;10.67;;;;;;;;;;5044421;28;20465;-83
2023/02/14 09:58:17;;;;;;;15.77;10.50;;;;;;;;;;5037577;28;20438;-85
2023/02/14 10:01:04;;;;;;;15.83;12.00;;;;;;;;;;5045194;28;20415;-84
2023/02/14 10:03:54;;;;;;;17.90;11.83;;;;;;;;;;5049657;28;20440;-83
2023/02/14 10:06:29;;;;;;;15.50;10.67;;;;;;;;;;5043388;28;20420;-84
2023/02/14 10:08:58;;;;;;;15.03;12.03;;;;;;;;;;5006215;28;20459;-83
2023/02/14 10:11:24;;;;;;;14.17;11.83;;;;;;;;;;5041700;28;20763;-83
2023/02/14 10:13:52;;;;;;;18.13;12.90;;;;;;;;;;5043285;28;20432;-83
2023/02/14 10:16:37;;;;;;;12.97;11.03;;;;;;;;;;5042264;28;20206;-84
2023/02/14 10:19:15;;;;;;;18.13;11.97;;;;;;;;;;5041291;28;20408;-84
2023/02/14 10:21:50;;;;;;;14.90;11.23;;;;;;;;;;5041140;28;20412;-83
2023/02/14 10:24:32;;;;;;;16.43;11.80;;;;;;;;;;5047045;28;20443;-84
2023/02/14 10:27:08;;;;;;;18.97;12.93;;;;;;;;;;5049280;28;20454;-85
2023/02/14 10:29:34;;;;;;;16.13;11.43;;;;;;;;;;5044624;28;20418;-85
2023/02/14 10:32:01;;;;;;;20.20;12.87;;;;;;;;;;5045950;28;21383;-81
2023/02/14 10:34:42;;;;;;;15.53;11.50;;;;;;;;;;5055755;28;20236;-81
2023/02/14 10:37:38;;;;;;;16.77;11.23;;;;;;;;;;5031834;28;20413;-81
2023/02/14 10:40:23;;;;;;;16.00;13.17;;;;;;;;;;5001527;28;21005;-85
2023/02/14 10:42:49;;;;;;;15.13;11.13;;;;;;;;;;5032505;28;20405;-84
2023/02/14 10:45:17;;;;;;;16.20;11.20;;;;;;;;;;5032405;28;20995;-83
2023/02/14 10:47:49;;;;;;;15.50;11.57;;;;;;;;;;5047972;28;20178;-84
2023/02/14 10:50:23;;;;;;;15.73;11.40;;;;;;;;;;5032288;28;20893;-84
2023/02/14 10:53:04;;;;;;;14.30;11.30;;;;;;;;;;5031929;28;20481;-86
2023/02/14 10:55:45;;;;;;;17.37;13.13;;;;;;;;;;5046849;28;20411;-82
2023/02/14 10:58:14;;;;;;;16.27;12.10;;;;;;;;;;5043335;28;20432;-84
2023/02/14 11:00:51;;;;;;;14.67;11.27;;;;;;;;;;5057547;28;20444;-83
2023/02/14 11:03:18;;;;;;;14.50;11.20;;;;;;;;;;5060170;28;20423;-85
2023/02/14 11:05:46;;;;;;;16.70;11.77;;;;;;;;;;5042496;28;20416;-84
2023/02/14 11:08:19;;;;;;;13.90;11.63;;;;;;;;;;5040632;28;20412;-82
2023/02/14 11:10:45;;;;;;;14.00;12.10;;;;;;;;;;5024487;28;22171;-82
2023/02/14 11:13:27;;;;;;;15.97;11.63;;;;;;;;;;5022992;28;20997;-83
2023/02/14 11:15:53;;;;;;;16.87;12.20;;;;;;;;;;5042102;28;20416;-81
2023/02/14 11:18:23;;;;;;;15.00;11.90;;;;;;;;;;5057993;28;20520;-82
2023/02/14 11:21:01;;;;;;;16.10;11.47;;;;;;;;;;5040168;28;20415;-82
2023/02/14 11:23:31;;;;;;;16.50;11.73;;;;;;;;;;5039282;28;20511;-84
2023/02/14 11:25:58;;;;;;;17.93;12.80;;;;;;;;;;5031875;28;20409;-80
2023/02/14 11:28:24;;;;;;;14.37;11.73;;;;;;;;;;5049322;28;20772;-80
2023/02/14 11:30:51;;;;;;;15.50;11.63;;;;;;;;;;5051539;28;20417;-82
2023/02/14 11:33:28;;;;;;;15.83;11.93;;;;;;;;;;5049797;28;20566;-80
2023/02/14 11:35:54;;;;;;;15.60;10.50;;;;;;;;;;5051722;28;20411;-80
2023/02/14 11:38:26;;;;;;;15.83;10.63;;;;;;;;;;5050570;28;20469;-80
2023/02/14 11:40:56;;;;;;;15.40;11.60;;;;;;;;;;5052270;28;20435;-81
2023/02/14 11:43:30;;;;;;;20.43;12.30;;;;;;;;;;5054443;28;20508;-82
2023/02/14 11:46:07;;;;;;;16.50;12.77;;;;;;;;;;5055674;28;20589;-80
2023/02/14 11:48:34;;;;;;;15.40;10.97;;;;;;;;;;5055787;28;20415;-82
2023/02/14 11:51:05;;;;;;;15.90;11.10;;;;;;;;;;5055544;28;20420;-81
2023/02/14 11:53:59;;;;;;;13.20;9.90;;;;;;;;;;5055431;28;20475;-80
2023/02/14 11:56:41;;;;;;;17.83;12.37;;;;;;;;;;5053824;28;20420;-80
2023/02/14 11:59:07;;;;;;;19.87;13.27;;;;;;;;;;5054651;28;20480;-81
2023/02/14 12:01:35;;;;;;;15.57;11.20;;;;;;;;;;5054402;28;20507;-79
2023/02/14 12:04:06;;;;;;;13.70;11.23;;;;;;;;;;5054594;28;20446;-79
2023/02/14 12:06:33;;;;;;;16.53;11.60;;;;;;;;;;5000579;28;20515;-78
2023/02/14 12:09:17;;;;;;;14.00;10.40;;;;;;;;;;5014520;28;21158;-78
2023/02/14 12:11:54;;;;;;;15.27;12.20;;;;;;;;;;5014442;28;20409;-79
2023/02/14 12:14:21;;;;;;;12.70;10.33;;;;;;;;;;4975864;28;20548;-78
2023/02/14 12:16:50;;;;;;;14.27;10.80;;;;;;;;;;5014611;28;20914;-80
2023/02/14 12:19:17;;;;;;;14.30;11.10;;;;;;;;;;5014542;28;20438;-78
2023/02/14 12:21:49;;;;;;;14.20;9.90;;;;;;;;;;5015432;28;20421;-79
2023/02/14 12:24:34;;;;;;;15.70;10.30;;;;;;;;;;5014582;28;20413;-81
2023/02/14 12:27:04;;;;;;;15.93;11.80;;;;;;;;;;5015638;28;20406;-79
2023/02/14 12:29:33;;;;;;;12.90;10.67;;;;;;;;;;5015851;28;20410;-80
2023/02/14 12:32:02;;;;;;;13.27;11.23;;;;;;;;;;5015724;28;20456;-85
2023/02/14 12:34:28;;;;;;;14.67;10.80;;;;;;;;;;5014651;28;20944;-87
2023/02/14 12:37:12;;;;;;;14.30;11.80;;;;;;;;;;5014230;28;20584;-83
2023/02/14 12:39:57;;;;;;;13.73;9.87;;;;;;;;;;5015850;28;20425;-81
2023/02/14 12:42:33;;;;;;;10.43;9.20;;;;;;;;;;5015832;28;20492;-81
2023/02/14 12:45:09;;;;;;;13.17;10.50;;;;;;;;;;5014448;28;20937;-81
2023/02/14 12:47:50;;;;;;;12.83;9.63;;;;;;;;;;5014930;28;20417;-80
2023/02/14 12:50:20;;;;;;;15.23;10.80;;;;;;;;;;5014464;28;20423;-81
2023/02/14 12:52:54;;;;;;;12.03;10.77;;;;;;;;;;5011550;28;20472;-83
2023/02/14 12:55:29;;;;;;;14.70;10.40;;;;;;;;;;5014095;28;20517;-82
2023/02/14 12:58:08;;;;;;;12.73;10.17;;;;;;;;;;5014020;28;20509;-81
2023/02/14 13:00:58;;;;;;;11.53;10.33;;;;;;;;;;5013557;28;20532;-79
2023/02/14 13:03:26;;;;;;;15.00;10.50;;;;;;;;;;5014844;28;20418;-81
2023/02/14 13:06:12;;;;;;;13.70;10.90;;;;;;;;;;5013216;28;20901;-79
2023/02/14 13:08:38;;;;;;;13.97;10.97;;;;;;;;;;5013640;28;20595;-80
2023/02/14 13:11:17;;;;;;;16.13;10.80;;;;;;;;;;5013261;28;20497;-80
2023/02/14 13:14:06;;;;;;;16.33;11.20;;;;;;;;;;5014771;28;20219;-80
2023/02/14 13:16:34;;;;;;;17.07;12.03;;;;;;;;;;4972234;28;20440;-81
2023/02/14 13:19:13;;;;;;;18.63;11.70;;;;;;;;;;5014440;28;20414;-78
2023/02/14 13:21:40;;;;;;;18.90;10.70;;;;;;;;;;5013373;28;20794;-77
2023/02/14 13:24:09;;;;;;;16.00;10.17;;;;;;;;;;5014091;28;20410;-78
2023/02/14 13:26:37;;;;;;;19.50;11.00;;;;;;;;;;5014400;28;20760;-78
2023/02/14 13:29:09;;;;;;;14.50;9.93;;;;;;;;;;5014369;28;20419;-79
2023/02/14 13:31:36;;;;;;;15.97;9.57;;;;;;;;;;5014801;28;20756;-78
2023/02/14 13:34:22;;;;;;;15.13;10.23;;;;;;;;;;5013123;28;20436;-79
2023/02/14 13:36:48;;;;;;;16.63;9.50;;;;;;;;;;5013569;28;20415;-78
2023/02/14 13:39:21;;;;;;;16.57;10.13;;;;;;;;;;5012822;28;20527;-78
2023/02/14 13:41:47;;;;;;;12.43;8.40;;;;;;;;;;5013991;28;20918;-78
2023/02/14 13:44:33;;;;;;;15.30;9.20;;;;;;;;;;5012622;28;20507;-77
2023/02/14 13:46:59;;;;;;;15.63;9.80;;;;;;;;;;5013391;28;20416;-78
2023/02/14 13:49:29;;;;;;;18.40;10.27;;;;;;;;;;5014167;28;20917;-77
2023/02/14 13:52:05;;;;;;;15.80;9.33;;;;;;;;;;5013464;28;20454;-80
2023/02/14 13:54:37;;;;;;;16.80;8.80;;;;;;;;;;5013932;28;20426;-78
2023/02/14 13:57:23;;;;;;;15.87;8.30;;;;;;;;;;5013435;28;20758;-82
2023/02/14 14:00:09;;;;;;;14.27;10.00;;;;;;;;;;5012895;28;20472;-80
2023/02/14 14:02:42;;;;;;;15.30;9.57;;;;;;;;;;5014257;28;20405;-80
2023/02/14 14:05:27;;;;;;;11.07;8.53;;;;;;;;;;5011628;28;20424;-78
2023/02/14 14:08:13;;;;;;;17.30;8.93;;;;;;;;;;5012159;28;20403;-80
2023/02/14 14:11:02;;;;;;;15.47;8.83;;;;;;;;;;5011643;28;20506;-80
2023/02/14 14:13:40;;;;;;;17.30;10.23;;;;;;;;;;5006067;28;20487;-87
2023/02/14 14:16:18;;;;;;;17.90;9.60;;;;;;;;;;5014953;28;20419;-81
2023/02/14 14:18:44;;;;;;;13.80;9.00;;;;;;;;;;4973537;28;20449;-77
2023/02/14 14:21:22;;;;;;;15.13;9.20;;;;;;;;;;5013340;28;20503;-80
2023/02/14 14:24:07;;;;;;;13.73;8.70;;;;;;;;;;5013538;28;20182;-77
2023/02/14 14:26:35;;;;;;;15.23;9.60;;;;;;;;;;5013281;28;20439;-77
2023/02/14 14:29:01;;;;;;;15.27;8.90;;;;;;;;;;5013154;28;20458;-78
2023/02/14 14:31:28;;;;;;;15.93;9.13;;;;;;;;;;5013505;28;20411;-81
2023/02/14 14:33:59;;;;;;;15.63;9.67;;;;;;;;;;5005982;28;20504;-82
2023/02/14 14:36:25;;;;;;;16.13;9.90;;;;;;;;;;5011648;28;20453;-78
2023/02/14 14:38:54;;;;;;;16.07;8.87;;;;;;;;;;5012246;28;20472;-79
2023/02/14 14:41:26;;;;;;;18.27;9.10;;;;;;;;;;5013093;28;20413;-79
2023/02/14 14:43:53;;;;;;;15.70;9.27;;;;;;;;;;5012875;28;20406;-78
2023/02/14 14:46:18;;;;;;;14.20;7.70;;;;;;;;;;5012872;28;20790;-77
2023/02/14 14:48:48;;;;;;;17.37;11.00;;;;;;;;;;5012808;28;20421;-79
2023/02/14 14:51:34;;;;;;;15.80;10.67;;;;;;;;;;5011793;28;20422;-78
2023/02/14 14:54:07;;;;;;;16.77;8.57;;;;;;;;;;5013103;28;20422;-76
2023/02/14 14:56:34;;;;;;;13.53;8.50;;;;;;;;;;5012940;28;20504;-76
2023/02/14 14:59:17;;;;;;;18.13;11.10;;;;;;;;;;5011773;28;20430;-77
2023/02/14 15:01:43;;;;;;;18.63;10.20;;;;;;;;;;5013636;28;20857;-77
2023/02/14 15:04:24;;;;;;;17.40;9.70;;;;;;;;;;5012649;28;20544;-86